Hlavní strana
METAR-TAF:

METAR-TAF

Letiště :

Bonaire, Nizozemské Antily

zeměpisná šířka: 12-09N, zeměpisná délka: 068-17W, výška: 6 m

Aktuální stav počasí

Zpráva byla vytvořena před 1 hodinou a 23 minutami, v 20:55 UTC
Východní vítr 16 kt, proměnlivý mezi východoseverovýchodním a jihovýchodním
Teplota 29°C
Vlhkost vzduchu 62%
Tlak 1011 hPa
Viditelnost 10 km a více
Skoro jasno ve výšce 2000 ft

METAR: TNCB 252055Z 09016KT 060V130 9999 FEW020 29/21 Q1011

Čas: 18:18 (22:18 UTC)

Předpověď počasí

Zpráva byla vytvořena před 5 hodinami a 51 minutami, v 16:27 UTC
Předpověď platná od 25 v 18 UTC do 26 v 24 UTC
Východní vítr 14 kt
Viditelnost 10 km a více
Polojasno ve výšce 2000 ft

TAF: TNCB 251627Z 2518/2624 10014KT 9999 SCT020

Stav a předpovědi počasí z více než 4 000 letišť (zprávy METAR a TAF).

Červené a žluté tečky na mapě představují dostupné meteorologické stanice.

Když kurzor umístíte na tečku, zobrazí se název stanice.

Pak kliknutím zobrazíte stav a předpověď počasí.

Chcete-li změnit mapu, kliknutím na zelené tlačítko se znaménkem +mapu přiblížíte, kliknutím na zelené tlačítko se znaménkem – mapu oddálíte a kliknutím na zelené šipky přejdete na sousední mapy.


METAR-TAF: